createdAt,value
2024-05-09T00:00:48.448Z,100.00
2024-05-09T00:03:36.670Z,100.00
2024-05-09T00:06:05.321Z,100.00
2024-05-09T00:08:33.854Z,100.00
2024-05-09T00:11:01.999Z,100.00
2024-05-09T00:13:30.293Z,100.00
2024-05-09T00:15:59.534Z,100.00
2024-05-09T00:18:27.795Z,100.00
2024-05-09T00:20:56.223Z,100.00
2024-05-09T00:23:24.864Z,100.00
2024-05-09T00:25:53.495Z,100.00
2024-05-09T00:28:21.426Z,100.00
2024-05-09T00:30:49.687Z,100.00
2024-05-09T00:33:20.538Z,100.00
2024-05-09T00:35:48.875Z,100.00
2024-05-09T00:38:17.559Z,100.00
2024-05-09T00:40:45.884Z,100.00
2024-05-09T00:43:15.583Z,100.00
2024-05-09T00:45:44.531Z,100.00
2024-05-09T00:48:17.526Z,100.00
2024-05-09T00:50:48.357Z,100.00
2024-05-09T00:53:18.333Z,100.00
2024-05-09T00:55:47.589Z,100.00
2024-05-09T00:58:20.165Z,100.00
2024-05-09T01:00:50.925Z,100.00
2024-05-09T01:03:20.183Z,100.00
2024-05-09T01:05:48.642Z,100.00
2024-05-09T01:08:17.724Z,100.00
2024-05-09T01:10:47.986Z,100.00
2024-05-09T01:13:16.657Z,100.00
2024-05-09T01:15:44.877Z,100.00
2024-05-09T01:18:14.352Z,100.00
2024-05-09T01:20:44.757Z,100.00
2024-05-09T01:23:15.826Z,100.00
2024-05-09T01:25:46.124Z,100.00
2024-05-09T01:28:15.915Z,100.00
2024-05-09T01:30:44.071Z,100.00
2024-05-09T01:33:12.842Z,100.00
2024-05-09T01:35:42.740Z,100.00
2024-05-09T01:38:13.601Z,100.00
2024-05-09T01:40:43.445Z,100.00
2024-05-09T01:43:12.404Z,100.00
2024-05-09T01:45:41.099Z,100.00
2024-05-09T01:48:11.152Z,100.00
2024-05-09T01:50:42.436Z,100.00
2024-05-09T01:53:13.951Z,100.00
2024-05-09T01:55:43.992Z,100.00
2024-05-09T01:58:12.983Z,100.00
2024-05-09T02:00:42.892Z,100.00
2024-05-09T02:03:16.045Z,100.00
2024-05-09T02:05:48.973Z,100.00
2024-05-09T02:08:19.302Z,100.00
2024-05-09T02:10:49.344Z,100.00
2024-05-09T02:13:18.340Z,100.00
2024-05-09T02:15:46.616Z,100.00
2024-05-09T02:18:14.697Z,100.00
2024-05-09T02:20:43.783Z,100.00
2024-05-09T02:23:13.496Z,100.00
2024-05-09T02:25:42.128Z,100.00
2024-05-09T02:28:10.254Z,100.00
2024-05-09T02:30:41.386Z,100.00
2024-05-09T02:33:12.953Z,100.00
2024-05-09T02:35:43.866Z,100.00
2024-05-09T02:38:13.062Z,100.00
2024-05-09T02:40:41.506Z,100.00
2024-05-09T02:43:12.704Z,100.00
2024-05-09T02:45:41.542Z,100.00
2024-05-09T02:48:12.663Z,100.00
2024-05-09T02:50:43.849Z,100.00
2024-05-09T02:53:12.738Z,100.00
2024-05-09T02:55:41.666Z,100.00
2024-05-09T02:58:10.372Z,100.00
2024-05-09T03:00:41.724Z,100.00
2024-05-09T03:03:13.501Z,100.00
2024-05-09T03:05:44.978Z,100.00
2024-05-09T03:08:14.061Z,100.00
2024-05-09T03:10:42.684Z,100.00
2024-05-09T03:13:14.639Z,100.00
2024-05-09T03:15:44.429Z,100.00
2024-05-09T03:18:13.414Z,100.00
2024-05-09T03:20:43.985Z,100.00
2024-05-09T03:23:12.654Z,100.00
2024-05-09T03:25:41.057Z,100.00
2024-05-09T03:28:09.110Z,100.00
2024-05-09T03:30:41.855Z,100.00
2024-05-09T03:33:19.781Z,100.00
2024-05-09T03:35:49.455Z,100.00
2024-05-09T03:38:18.258Z,100.00
2024-05-09T03:40:49.413Z,100.00
2024-05-09T03:43:19.288Z,100.00
2024-05-09T03:45:50.354Z,100.00
2024-05-09T03:48:18.657Z,100.00
2024-05-09T03:50:46.901Z,100.00
2024-05-09T03:53:15.317Z,100.00
2024-05-09T03:55:43.623Z,100.00
2024-05-09T03:58:14.140Z,100.00
2024-05-09T04:00:42.753Z,100.00
2024-05-09T04:03:12.481Z,100.00
2024-05-09T04:05:43.758Z,100.00
2024-05-09T04:08:15.548Z,100.00
2024-05-09T04:10:44.056Z,100.00
2024-05-09T04:13:12.236Z,100.00
2024-05-09T04:15:40.426Z,100.00
2024-05-09T04:18:08.706Z,100.00
2024-05-09T04:20:39.797Z,100.00
2024-05-09T04:23:13.837Z,100.00
2024-05-09T04:25:45.268Z,100.00
2024-05-09T04:28:14.251Z,100.00
2024-05-09T04:30:43.278Z,100.00
2024-05-09T04:33:13.766Z,100.00
2024-05-09T04:35:44.041Z,100.00
2024-05-09T04:38:14.284Z,100.00
2024-05-09T04:40:43.153Z,100.00
2024-05-09T04:43:16.006Z,100.00
2024-05-09T04:45:44.863Z,100.00
2024-05-09T04:48:13.293Z,100.00
2024-05-09T04:50:41.821Z,100.00
2024-05-09T04:53:14.781Z,100.00
2024-05-09T04:55:43.091Z,100.00
2024-05-09T04:58:11.728Z,100.00
2024-05-09T05:00:40.930Z,100.00
2024-05-09T05:03:13.786Z,100.00
2024-05-09T05:05:45.960Z,100.00
2024-05-09T05:08:16.618Z,100.00
2024-05-09T05:10:46.766Z,100.00
2024-05-09T05:13:24.062Z,100.00
2024-05-09T05:15:55.747Z,100.00
2024-05-09T05:18:26.364Z,100.00
2024-05-09T05:20:58.471Z,100.00
2024-05-09T05:23:26.822Z,100.00
2024-05-09T05:25:55.591Z,100.00
2024-05-09T05:28:24.147Z,100.00
2024-05-09T05:30:52.303Z,100.00
2024-05-09T05:33:22.395Z,100.00
2024-05-09T05:35:51.179Z,100.00
2024-05-09T05:38:21.940Z,100.00
2024-05-09T05:40:52.086Z,100.00
2024-05-09T05:43:20.414Z,100.00
2024-05-09T05:45:48.497Z,100.00
2024-05-09T05:48:17.542Z,100.00
2024-05-09T05:50:47.244Z,100.00
2024-05-09T05:53:15.701Z,100.00
2024-05-09T05:55:44.027Z,100.00
2024-05-09T05:58:13.164Z,100.00
2024-05-09T06:00:42.233Z,100.00
2024-05-09T06:03:14.542Z,100.00
2024-05-09T06:05:44.213Z,100.00
2024-05-09T06:08:12.817Z,100.00
2024-05-09T06:10:41.869Z,100.00
2024-05-09T06:13:13.578Z,100.00
2024-05-09T06:15:43.041Z,100.00
2024-05-09T06:18:12.688Z,100.00
2024-05-09T06:20:43.450Z,100.00
2024-05-09T06:23:18.248Z,100.00
2024-05-09T06:25:46.571Z,100.00
2024-05-09T06:28:14.632Z,100.00
2024-05-09T06:30:43.363Z,100.00
2024-05-09T06:33:13.916Z,100.00
2024-05-09T06:35:44.655Z,100.00
2024-05-09T06:38:13.237Z,100.00
2024-05-09T06:40:43.538Z,100.00
2024-05-09T06:43:18.503Z,100.00
2024-05-09T06:45:49.144Z,100.00
2024-05-09T06:48:19.503Z,100.00
2024-05-09T06:50:49.431Z,100.00
2024-05-09T06:53:21.471Z,100.00
2024-05-09T06:55:49.956Z,100.00
2024-05-09T06:58:18.166Z,100.00
2024-05-09T07:00:46.470Z,100.00
2024-05-09T07:03:17.910Z,100.00
2024-05-09T07:05:48.666Z,100.00
2024-05-09T07:08:18.382Z,100.00
2024-05-09T07:10:46.958Z,100.00
2024-05-09T07:13:15.959Z,100.00
2024-05-09T07:15:44.260Z,100.00
2024-05-09T07:18:16.716Z,100.00
2024-05-09T07:20:47.757Z,100.00
2024-05-09T07:23:16.496Z,100.00
2024-05-09T07:25:45.396Z,100.00
2024-05-09T07:28:17.364Z,100.00
2024-05-09T07:30:45.536Z,100.00
2024-05-09T07:33:22.289Z,100.00
2024-05-09T07:35:52.686Z,100.00
2024-05-09T07:38:21.192Z,100.00
2024-05-09T07:40:49.553Z,100.00
2024-05-09T07:43:17.675Z,100.00
2024-05-09T07:45:52.559Z,100.00
2024-05-09T07:52:38.896Z,100.00
2024-05-09T07:53:48.291Z,100.00
2024-05-09T07:56:21.981Z,100.00
2024-05-09T07:58:53.378Z,100.00
2024-05-09T08:01:21.925Z,100.00
2024-05-09T08:03:50.847Z,100.00
2024-05-09T08:06:26.820Z,100.00
2024-05-09T08:08:55.324Z,100.00
2024-05-09T08:11:24.304Z,100.00
2024-05-09T08:13:55.797Z,99.98
2024-05-09T08:16:24.038Z,99.99
2024-05-09T08:18:53.030Z,99.79
2024-05-09T08:21:21.235Z,99.65
2024-05-09T08:23:51.930Z,99.41
2024-05-09T08:26:20.148Z,98.96
2024-05-09T08:28:48.285Z,98.90
2024-05-09T08:31:16.391Z,98.90
2024-05-09T08:33:47.515Z,98.92
2024-05-09T08:36:16.767Z,99.23
2024-05-09T08:38:44.846Z,99.50
2024-05-09T08:41:15.353Z,99.54
2024-05-09T08:43:44.505Z,100.00
2024-05-09T08:46:18.323Z,100.00
2024-05-09T08:48:52.215Z,100.00
2024-05-09T08:51:20.745Z,100.00
2024-05-09T08:53:48.965Z,100.00
2024-05-09T08:56:18.937Z,100.00
2024-05-09T08:58:55.777Z,100.00
2024-05-09T09:01:24.344Z,100.00
2024-05-09T09:03:53.494Z,100.00
2024-05-09T09:06:21.929Z,100.00
2024-05-09T09:08:51.238Z,99.89
2024-05-09T09:11:19.411Z,99.75
2024-05-09T09:13:48.066Z,99.57
2024-05-09T09:16:17.018Z,98.63
2024-05-09T09:18:48.159Z,97.42
2024-05-09T09:21:17.654Z,97.68
2024-05-09T09:23:45.790Z,97.09
2024-05-09T09:26:17.970Z,97.22
2024-05-09T09:28:47.039Z,96.21
2024-05-09T09:31:19.432Z,96.35
2024-05-09T09:33:47.600Z,96.46
2024-05-09T09:36:18.186Z,96.24
2024-05-09T09:38:47.418Z,95.49
2024-05-09T09:41:19.816Z,95.44
2024-05-09T09:43:47.952Z,95.32
2024-05-09T09:46:18.175Z,95.14
2024-05-09T09:48:47.290Z,95.64
2024-05-09T09:51:16.315Z,94.97
2024-05-09T09:53:47.407Z,94.99
2024-05-09T09:56:18.105Z,94.94
2024-05-09T09:58:48.180Z,94.84
2024-05-09T10:01:16.512Z,95.26
2024-05-09T10:03:45.457Z,95.65
2024-05-09T10:06:15.322Z,94.84
2024-05-09T10:08:45.418Z,95.08
2024-05-09T10:11:13.514Z,94.33
2024-05-09T10:13:41.880Z,93.72
2024-05-09T10:16:13.054Z,93.82
2024-05-09T10:18:41.890Z,94.17
2024-05-09T10:21:20.182Z,94.82
2024-05-09T10:23:59.583Z,95.30
2024-05-09T10:26:35.291Z,95.33
2024-05-09T10:29:13.346Z,97.25
2024-05-09T10:31:42.833Z,97.61
2024-05-09T10:34:24.246Z,98.43
2024-05-09T10:36:56.331Z,98.46
2024-05-09T10:39:25.580Z,98.35
2024-05-09T10:41:53.775Z,99.33
2024-05-09T10:44:22.153Z,100.00
2024-05-09T10:46:50.601Z,100.00
2024-05-09T10:49:19.067Z,100.00
2024-05-09T10:51:50.790Z,100.00
2024-05-09T10:54:19.235Z,100.00
2024-05-09T10:56:56.003Z,100.00
2024-05-09T10:59:24.254Z,100.00
2024-05-09T11:02:18.892Z,100.00
2024-05-09T11:04:47.844Z,100.00
2024-05-09T11:07:18.535Z,100.00
2024-05-09T11:09:47.886Z,100.00
2024-05-09T11:12:16.286Z,100.00
2024-05-09T11:14:54.572Z,100.00
2024-05-09T11:17:22.786Z,100.00
2024-05-09T11:19:51.277Z,100.00
2024-05-09T11:22:21.560Z,100.00
2024-05-09T11:24:50.046Z,100.00
2024-05-09T11:27:21.347Z,100.00
2024-05-09T11:30:32.371Z,100.00
2024-05-09T11:35:07.164Z,100.00
2024-05-09T11:45:10.531Z,100.00
2024-05-09T11:47:40.487Z,100.00
2024-05-09T11:50:12.986Z,100.00
2024-05-09T11:52:44.429Z,100.00
2024-05-09T11:55:13.014Z,100.00
2024-05-09T11:57:41.279Z,100.00
2024-05-09T12:00:14.809Z,100.00
2024-05-09T12:02:46.375Z,100.00
2024-05-09T12:05:14.757Z,100.00
2024-05-09T12:07:43.386Z,100.00
2024-05-09T12:10:19.287Z,100.00
2024-05-09T12:12:52.270Z,100.00
2024-05-09T12:15:20.288Z,100.00
2024-05-09T12:17:50.911Z,100.00
2024-05-09T12:20:28.599Z,100.00
2024-05-09T12:23:03.992Z,100.00
2024-05-09T12:25:32.226Z,100.00
2024-05-09T12:28:02.328Z,100.00
2024-05-09T12:30:36.691Z,100.00
2024-05-09T12:33:12.728Z,100.00
2024-05-09T12:35:44.313Z,100.00
2024-05-09T12:38:15.460Z,100.00
2024-05-09T12:40:44.062Z,100.00
2024-05-09T12:43:12.515Z,100.00
2024-05-09T12:45:43.806Z,100.00
2024-05-09T12:48:15.499Z,100.00
2024-05-09T12:50:43.658Z,100.00
2024-05-09T12:53:12.052Z,100.00
2024-05-09T12:55:48.289Z,100.00
2024-05-09T12:58:22.954Z,100.00
2024-05-09T13:00:52.490Z,100.00
2024-05-09T13:03:21.895Z,100.00
2024-05-09T13:05:51.495Z,100.00
2024-05-09T13:08:20.648Z,100.00
2024-05-09T13:10:50.205Z,100.00
2024-05-09T13:13:18.660Z,100.00
2024-05-09T13:15:47.026Z,100.00
2024-05-09T13:18:15.500Z,100.00
2024-05-09T13:20:44.223Z,100.00
2024-05-09T13:23:12.563Z,100.00
2024-05-09T13:25:41.033Z,100.00
2024-05-09T13:28:09.645Z,100.00
2024-05-09T13:30:40.927Z,100.00
2024-05-09T13:33:12.173Z,100.00
2024-05-09T13:35:46.852Z,100.00
2024-05-09T13:38:19.826Z,100.00
2024-05-09T13:40:49.828Z,100.00
2024-05-09T13:43:23.189Z,100.00
2024-05-09T13:45:52.228Z,100.00
2024-05-09T13:48:20.943Z,100.00
2024-05-09T13:50:49.378Z,100.00
2024-05-09T13:53:17.602Z,100.00
2024-05-09T13:55:46.240Z,100.00
2024-05-09T13:58:14.818Z,100.00
2024-05-09T14:00:47.954Z,100.00
2024-05-09T14:03:19.823Z,100.00
2024-05-09T14:05:51.363Z,100.00
2024-05-09T14:08:22.711Z,100.00
2024-05-09T14:10:52.220Z,100.00
2024-05-09T14:13:21.308Z,100.00
2024-05-09T14:15:51.095Z,100.00
2024-05-09T14:18:22.052Z,100.00
2024-05-09T14:20:52.628Z,100.00
2024-05-09T14:23:21.113Z,100.00
2024-05-09T14:25:52.363Z,100.00
2024-05-09T14:28:22.712Z,100.00
2024-05-09T14:30:51.540Z,100.00
2024-05-09T14:33:27.642Z,100.00
2024-05-09T14:35:56.785Z,100.00
2024-05-09T14:38:30.168Z,100.00
2024-05-09T14:40:58.851Z,100.00
2024-05-09T14:43:27.392Z,100.00
2024-05-09T14:45:58.873Z,99.36
2024-05-09T14:48:27.864Z,98.04
2024-05-09T14:50:56.225Z,98.04
2024-05-09T14:53:27.050Z,98.69
2024-05-09T14:55:57.499Z,98.26
2024-05-09T14:58:26.338Z,96.48
2024-05-09T15:00:54.924Z,97.40
2024-05-09T15:03:23.371Z,95.69
2024-05-09T15:05:52.414Z,93.71
2024-05-09T15:08:21.034Z,93.04
2024-05-09T15:10:50.562Z,92.07
2024-05-09T15:13:21.264Z,91.99
2024-05-09T15:15:49.800Z,89.29
2024-05-09T15:18:18.529Z,88.18
2024-05-09T15:20:48.149Z,88.30
2024-05-09T15:23:16.606Z,87.62
2024-05-09T15:25:45.059Z,87.22
2024-05-09T15:28:13.593Z,87.55
2024-05-09T15:30:45.523Z,87.23
2024-05-09T15:33:15.178Z,87.54
2024-05-09T15:35:45.746Z,87.88
2024-05-09T15:38:15.662Z,87.81
2024-05-09T15:40:43.993Z,86.88
2024-05-09T15:43:12.189Z,85.36
2024-05-09T15:45:41.443Z,85.41
2024-05-09T15:48:11.446Z,85.47
2024-05-09T15:50:42.067Z,85.50
2024-05-09T15:53:13.372Z,85.94
2024-05-09T15:55:43.055Z,85.92
2024-05-09T15:58:12.402Z,84.74
2024-05-09T16:00:44.771Z,85.02
2024-05-09T16:03:15.121Z,84.70
2024-05-09T16:05:45.558Z,84.03
2024-05-09T16:08:16.206Z,84.50
2024-05-09T16:10:47.484Z,83.14
2024-05-09T16:13:16.905Z,83.31
2024-05-09T16:15:45.995Z,82.57
2024-05-09T16:18:14.656Z,80.55
2024-05-09T16:23:12.584Z,79.26
2024-05-09T16:25:46.149Z,80.08
2024-05-09T16:28:14.429Z,79.13
2024-05-09T16:30:42.666Z,78.93
2024-05-09T16:33:11.715Z,79.79
2024-05-09T16:35:40.530Z,80.62
2024-05-09T16:41:40.445Z,82.69
2024-05-09T16:44:32.436Z,83.71
2024-05-09T16:47:53.662Z,84.63
2024-05-09T16:50:45.550Z,85.37
2024-05-09T16:53:32.430Z,85.93
2024-05-09T16:56:28.230Z,86.65
2024-05-09T16:59:03.887Z,87.16
2024-05-09T17:01:41.884Z,87.86
2024-05-09T17:04:13.766Z,88.58
2024-05-09T17:06:45.865Z,88.68
2024-05-09T17:09:24.942Z,89.27
2024-05-09T17:11:56.999Z,90.27
2024-05-09T17:14:38.083Z,90.93
2024-05-09T17:17:08.157Z,90.98
2024-05-09T17:19:40.721Z,90.82
2024-05-09T17:22:11.689Z,91.26
2024-05-09T17:24:44.010Z,91.51
2024-05-09T17:28:07.896Z,91.87
2024-05-09T17:30:56.195Z,93.15
2024-05-09T17:33:33.927Z,93.95
2024-05-09T17:36:16.443Z,94.24
2024-05-09T17:38:44.695Z,93.66
2024-05-09T17:41:12.871Z,93.38
2024-05-09T17:43:43.529Z,93.27
2024-05-09T17:46:11.682Z,93.54
2024-05-09T17:48:40.090Z,94.26
2024-05-09T17:51:08.622Z,94.70
2024-05-09T17:53:36.891Z,94.55
2024-05-09T17:56:06.594Z,94.39
2024-05-09T17:58:36.480Z,94.76
2024-05-09T18:01:04.874Z,95.11
2024-05-09T18:03:33.322Z,95.48
2024-05-09T18:06:01.762Z,95.92
2024-05-09T18:08:30.047Z,96.37
2024-05-09T18:10:58.388Z,96.98
2024-05-09T18:13:27.241Z,97.19
2024-05-09T18:15:56.170Z,97.51
2024-05-09T18:18:30.519Z,97.78
2024-05-09T18:20:59.029Z,98.31
2024-05-09T18:23:27.290Z,98.84
2024-05-09T18:25:56.927Z,99.94
2024-05-09T18:28:25.527Z,100.00
2024-05-09T18:30:54.034Z,100.00
2024-05-09T18:33:22.341Z,100.00
2024-05-09T18:35:50.482Z,100.00
2024-05-09T18:38:19.204Z,100.00
2024-05-09T18:40:49.225Z,100.00
2024-05-09T18:43:19.045Z,100.00
2024-05-09T18:45:50.545Z,100.00
2024-05-09T18:48:19.224Z,100.00
2024-05-09T18:50:51.821Z,100.00
2024-05-09T18:53:24.024Z,100.00
2024-05-09T18:55:54.472Z,100.00
2024-05-09T18:58:23.370Z,100.00
2024-05-09T19:00:54.281Z,100.00
2024-05-09T19:03:24.033Z,100.00
2024-05-09T19:05:52.555Z,100.00
2024-05-09T19:08:20.622Z,100.00
2024-05-09T19:10:50.036Z,100.00
2024-05-09T19:13:18.242Z,100.00
2024-05-09T19:15:46.718Z,100.00
2024-05-09T19:18:15.491Z,100.00
2024-05-09T19:20:45.303Z,100.00
2024-05-09T19:23:13.463Z,100.00
2024-05-09T19:25:41.650Z,100.00
2024-05-09T19:28:10.210Z,100.00
2024-05-09T19:30:41.690Z,100.00
2024-05-09T19:33:13.303Z,100.00
2024-05-09T19:35:43.521Z,100.00
2024-05-09T19:38:12.550Z,100.00
2024-05-09T19:40:41.543Z,100.00
2024-05-09T19:43:11.023Z,100.00
2024-05-09T19:45:39.650Z,100.00
2024-05-09T19:48:08.383Z,100.00
2024-05-09T19:50:42.336Z,100.00
2024-05-09T19:53:14.345Z,100.00
2024-05-09T19:55:43.663Z,100.00
2024-05-09T19:58:12.846Z,100.00
2024-05-09T20:00:43.514Z,100.00
2024-05-09T20:03:15.232Z,100.00
2024-05-09T20:05:46.503Z,100.00
2024-05-09T20:08:15.177Z,100.00
2024-05-09T20:10:43.560Z,100.00
2024-05-09T20:13:11.790Z,100.00
2024-05-09T20:15:40.190Z,100.00
2024-05-09T20:18:08.646Z,100.00
2024-05-09T20:20:41.131Z,100.00
2024-05-09T20:23:12.720Z,100.00
2024-05-09T20:25:42.130Z,100.00
2024-05-09T20:28:11.111Z,100.00
2024-05-09T20:30:39.495Z,100.00
2024-05-09T20:33:09.096Z,100.00
2024-05-09T20:35:38.325Z,100.00
2024-05-09T20:38:07.704Z,100.00
2024-05-09T20:40:38.602Z,100.00
2024-05-09T20:43:09.679Z,100.00
2024-05-09T20:45:38.915Z,100.00
2024-05-09T20:48:08.829Z,100.00
2024-05-09T20:50:41.439Z,100.00
2024-05-09T20:53:13.489Z,100.00
2024-05-09T20:55:43.711Z,100.00
2024-05-09T20:58:12.705Z,100.00
2024-05-09T21:00:44.403Z,100.00
2024-05-09T21:03:16.671Z,100.00
2024-05-09T21:05:47.677Z,100.00
2024-05-09T21:08:16.608Z,100.00
2024-05-09T21:10:44.708Z,100.00
2024-05-09T21:13:13.236Z,100.00
2024-05-09T21:15:41.351Z,100.00
2024-05-09T21:18:09.724Z,100.00
2024-05-09T21:20:38.195Z,100.00
2024-05-09T21:23:06.315Z,100.00
2024-05-09T21:25:34.786Z,100.00
2024-05-09T21:28:03.131Z,100.00
2024-05-09T21:30:40.398Z,100.00
2024-05-09T21:33:13.073Z,100.00
2024-05-09T21:35:44.435Z,100.00
2024-05-09T21:38:14.478Z,100.00
2024-05-09T21:40:44.243Z,100.00
2024-05-09T21:43:12.627Z,100.00
2024-05-09T21:45:40.998Z,100.00
2024-05-09T21:48:09.462Z,100.00
2024-05-09T21:50:41.097Z,100.00
2024-05-09T21:53:11.887Z,100.00
2024-05-09T21:55:44.644Z,100.00
2024-05-09T21:58:16.110Z,100.00
2024-05-09T22:00:46.352Z,100.00
2024-05-09T22:03:15.117Z,100.00
2024-05-09T22:05:44.865Z,100.00
2024-05-09T22:08:13.699Z,100.00
2024-05-09T22:10:42.939Z,100.00
2024-05-09T22:13:11.154Z,100.00
2024-05-09T22:15:40.465Z,100.00
2024-05-09T22:18:11.016Z,100.00
2024-05-09T22:20:43.676Z,100.00
2024-05-09T22:23:12.801Z,100.00
2024-05-09T22:25:41.071Z,100.00
2024-05-09T22:28:09.637Z,100.00
2024-05-09T22:30:39.858Z,100.00
2024-05-09T22:33:10.405Z,100.00
2024-05-09T22:35:40.759Z,100.00
2024-05-09T22:38:09.220Z,100.00
2024-05-09T22:40:45.791Z,100.00
2024-05-09T22:43:23.377Z,100.00
2024-05-09T22:45:56.526Z,100.00
2024-05-09T22:48:26.006Z,100.00
2024-05-09T22:50:54.953Z,100.00
2024-05-09T22:53:25.337Z,100.00
2024-05-09T22:55:53.942Z,100.00
2024-05-09T22:58:23.134Z,100.00
2024-05-09T23:00:51.662Z,100.00
2024-05-09T23:03:21.762Z,100.00
2024-05-09T23:05:51.387Z,100.00
2024-05-09T23:08:19.470Z,100.00
2024-05-09T23:10:47.788Z,100.00
2024-05-09T23:13:16.246Z,100.00
2024-05-09T23:15:44.525Z,100.00
2024-05-09T23:18:12.719Z,100.00
2024-05-09T23:20:40.964Z,100.00
2024-05-09T23:23:10.882Z,100.00
2024-05-09T23:25:44.223Z,100.00
2024-05-09T23:28:12.711Z,100.00
2024-05-09T23:30:41.982Z,100.00
2024-05-09T23:33:13.171Z,100.00
2024-05-09T23:35:45.786Z,100.00
2024-05-09T23:38:13.931Z,100.00
2024-05-09T23:40:43.228Z,100.00
2024-05-09T23:43:14.048Z,100.00
2024-05-09T23:45:43.128Z,100.00
2024-05-09T23:48:11.700Z,100.00
2024-05-09T23:50:40.848Z,100.00
2024-05-09T23:53:10.531Z,100.00
2024-05-09T23:55:39.741Z,100.00
2024-05-09T23:58:11.231Z,100.00
